Time;durP1;ratioP1;P1;durP2;ratioP2;P2;SDS_P1;SDS_P2;PMS_P1;PMS_P2;Temp;Humidity;BMP_temperature;BMP_pressure;BME280_temperature;BME280_humidity;BME280_pressure;Samples;Min_cycle;Max_cycle;Signal;HPM_P1;HPM_P2
2024/01/25 00:02:22;;;;;;;0.60;0.60;;;;;;;13.01;88.58;101430.44;5006255;28;20034;-67
2024/01/25 00:04:47;;;;;;;0.60;0.60;;;;;;;12.99;88.60;101430.44;5006037;28;20034;-68
2024/01/25 00:07:13;;;;;;;0.70;0.70;;;;;;;12.97;88.43;101426.00;5008033;28;20515;-67
2024/01/25 00:09:38;;;;;;;0.60;0.60;;;;;;;12.98;88.43;101425.97;5008067;28;20018;-68
2024/01/25 00:12:04;;;;;;;0.60;0.60;;;;;;;13.04;87.74;101431.25;5006967;28;20435;-68
2024/01/25 00:14:29;;;;;;;0.60;0.60;;;;;;;13.06;87.53;101434.75;4993791;28;20061;-67
2024/01/25 00:16:55;;;;;;;0.60;0.60;;;;;;;13.05;87.71;101434.78;5007482;28;20113;-68
2024/01/25 00:19:20;;;;;;;0.60;0.60;;;;;;;12.99;87.59;101422.44;5008894;28;20033;-68
2024/01/25 00:21:45;;;;;;;0.57;0.57;;;;;;;13.00;88.21;101428.63;4989286;28;20376;-68
2024/01/25 00:24:12;;;;;;;0.60;0.60;;;;;;;12.97;88.68;101429.59;5008540;28;20022;-67
2024/01/25 00:26:37;;;;;;;0.57;0.57;;;;;;;12.97;89.25;101424.25;4995351;28;20065;-69
2024/01/25 00:29:03;;;;;;;0.50;0.50;;;;;;;12.97;88.60;101423.34;5008436;28;20409;-67
2024/01/25 00:31:29;;;;;;;0.60;0.60;;;;;;;13.01;88.88;101414.41;5007672;28;20033;-68
2024/01/25 00:33:55;;;;;;;0.60;0.60;;;;;;;13.06;89.38;101423.22;5008153;28;20037;-68
2024/01/25 00:36:21;;;;;;;0.50;0.50;;;;;;;13.11;88.80;101421.31;5008526;28;20090;-68
2024/01/25 00:38:47;;;;;;;0.60;0.60;;;;;;;13.06;88.96;101418.72;5008825;28;20117;-68
2024/01/25 00:41:21;;;;;;;0.60;0.60;;;;;;;13.09;89.25;101410.69;5007914;28;20164;-68
2024/01/25 00:43:47;;;;;;;0.60;0.60;;;;;;;13.10;89.36;101420.44;4991281;28;20034;-68
2024/01/25 00:46:12;;;;;;;0.60;0.60;;;;;;;13.11;89.07;101411.50;4993126;28;20546;-69
2024/01/25 00:48:40;;;;;;;0.60;0.60;;;;;;;13.10;89.06;101415.09;4989587;28;20022;-69
2024/01/25 00:51:07;;;;;;;0.50;0.50;;;;;;;13.01;88.98;101414.41;5006502;28;20032;-68
2024/01/25 00:53:33;;;;;;;0.60;0.60;;;;;;;12.84;89.10;101417.38;5006691;28;20488;-68
2024/01/25 00:55:59;;;;;;;0.50;0.50;;;;;;;12.67;89.84;101406.13;5007420;28;20046;-68
2024/01/25 00:58:25;;;;;;;0.60;0.60;;;;;;;12.57;90.35;101412.56;5010553;28;20056;-68
2024/01/25 01:00:51;;;;;;;0.50;0.50;;;;;;;12.48;91.55;101410.06;5010485;28;20156;-68
2024/01/25 01:03:18;;;;;;;0.60;0.60;;;;;;;12.47;91.69;101404.75;4994578;28;20112;-69
2024/01/25 01:05:44;;;;;;;0.57;0.57;;;;;;;12.24;91.67;101378.47;5002635;28;20058;-68
2024/01/25 01:08:10;;;;;;;0.55;0.55;;;;;;;12.39;92.48;101414.69;4982221;28;20032;-68
2024/01/25 01:10:36;;;;;;;0.60;0.60;;;;;;;12.40;92.72;101420.00;5010951;28;20487;-68
2024/01/25 01:13:01;;;;;;;0.52;0.52;;;;;;;12.36;94.39;101418.28;5011191;28;20037;-68
2024/01/25 01:15:27;;;;;;;0.60;0.60;;;;;;;12.40;94.62;101424.44;5010307;28;20117;-68
2024/01/25 01:17:52;;;;;;;0.60;0.60;;;;;;;12.48;94.96;101419.84;4994276;28;20038;-69
2024/01/25 01:20:17;;;;;;;0.68;0.68;;;;;;;12.55;95.50;101414.34;4994233;28;20030;-68
2024/01/25 01:22:43;;;;;;;0.70;0.70;;;;;;;12.67;95.55;101413.25;5010606;28;20061;-69
2024/01/25 01:25:08;;;;;;;0.50;0.50;;;;;;;12.75;95.27;101412.19;5010996;28;20034;-68
2024/01/25 01:27:34;;;;;;;0.70;0.70;;;;;;;12.75;95.07;101412.19;5009555;28;20022;-69
2024/01/25 01:29:59;;;;;;;0.60;0.60;;;;;;;12.74;94.82;101422.91;5009208;28;20034;-68
2024/01/25 01:32:25;;;;;;;0.60;0.60;;;;;;;12.74;95.39;101423.81;5010465;28;20116;-68
2024/01/25 01:34:50;;;;;;;0.60;0.60;;;;;;;12.75;95.29;101406.88;5010115;28;20033;-68
2024/01/25 01:37:15;;;;;;;0.50;0.50;;;;;;;12.80;95.78;101420.16;5010398;28;20407;-69
2024/01/25 01:39:41;;;;;;;0.60;0.60;;;;;;;12.84;95.88;101414.72;5011095;28;20041;-69
2024/01/25 01:42:06;;;;;;;0.50;0.50;;;;;;;12.87;95.86;101421.75;5010153;28;20068;-68
2024/01/25 01:44:32;;;;;;;0.60;0.60;;;;;;;12.57;95.49;101355.63;5008206;28;20072;-68
2024/01/25 01:46:58;;;;;;;0.60;0.60;;;;;;;12.89;95.92;101427.97;5008035;28;20110;-68
2024/01/25 01:49:23;;;;;;;0.63;0.63;;;;;;;12.86;95.47;101428.91;5009564;28;20033;-68
2024/01/25 01:51:49;;;;;;;0.60;0.60;;;;;;;12.88;95.44;101432.41;5009883;28;20032;-67
2024/01/25 01:54:15;;;;;;;0.60;0.60;;;;;;;12.83;95.14;101442.31;5008804;28;20030;-69
2024/01/25 01:56:40;;;;;;;0.60;0.60;;;;;;;12.76;94.63;101446.03;5005799;28;20507;-68
2024/01/25 01:59:10;;;;;;;0.60;0.60;;;;;;;12.57;94.32;101422.38;5009568;28;20060;-68
2024/01/25 02:01:35;;;;;;;0.60;0.60;;;;;;;12.65;93.88;101448.00;5009685;28;20037;-69
2024/01/25 02:04:01;;;;;;;0.60;0.60;;;;;;;12.52;93.96;101446.44;4993787;28;20027;-69
2024/01/25 02:06:27;;;;;;;0.50;0.50;;;;;;;12.47;94.75;101442.97;5010596;28;20145;-69
2024/01/25 02:08:53;;;;;;;0.50;0.50;;;;;;;12.43;94.96;101437.72;5010145;28;20109;-69
2024/01/25 02:11:21;;;;;;;0.60;0.60;;;;;;;12.41;95.09;101439.53;4987877;28;20037;-69
2024/01/25 02:13:47;;;;;;;0.60;0.60;;;;;;;12.27;95.88;101426.47;5008672;28;20080;-68
2024/01/25 02:16:14;;;;;;;0.50;0.50;;;;;;;12.37;97.08;101452.03;5009880;28;20042;-68
2024/01/25 02:18:41;;;;;;;0.50;0.50;;;;;;;12.11;97.62;101427.59;5009201;28;20580;-68
2024/01/25 02:21:06;;;;;;;0.60;0.60;;;;;;;12.30;98.13;101461.09;5009341;28;20630;-69
2024/01/25 02:23:32;;;;;;;0.60;0.60;;;;;;;12.24;98.45;101460.31;5010083;28;20033;-69
2024/01/25 02:25:57;;;;;;;0.57;0.57;;;;;;;12.17;100.00;101454.19;4989447;28;20030;-69
2024/01/25 02:28:22;;;;;;;0.60;0.60;;;;;;;12.14;100.00;101462.22;5010649;28;20026;-68
2024/01/25 02:30:48;;;;;;;0.60;0.60;;;;;;;12.15;100.00;101460.44;5009889;28;20056;-68
2024/01/25 02:33:13;;;;;;;0.60;0.60;;;;;;;12.06;100.00;101466.78;5010561;28;20072;-69
2024/01/25 02:35:39;;;;;;;0.50;0.50;;;;;;;12.06;100.00;101465.94;5009247;28;20385;-69
2024/01/25 02:38:04;;;;;;;0.70;0.70;;;;;;;12.07;100.00;101455.25;4991746;28;20030;-69
2024/01/25 02:40:30;;;;;;;0.60;0.60;;;;;;;12.01;100.00;101463.31;5007698;28;20040;-68
2024/01/25 02:42:56;;;;;;;0.57;0.57;;;;;;;12.04;100.00;101463.28;4999817;28;20019;-68
2024/01/25 02:45:22;;;;;;;0.60;0.60;;;;;;;12.05;100.00;101465.03;4988996;28;20044;-68
2024/01/25 02:47:47;;;;;;;0.60;0.60;;;;;;;11.92;100.00;101436.81;4989298;28;20030;-68
2024/01/25 02:50:13;;;;;;;0.60;0.60;;;;;;;12.07;100.00;101468.56;5001270;28;20034;-68
2024/01/25 02:52:38;;;;;;;0.60;0.60;;;;;;;11.96;100.00;101453.66;5009144;28;20028;-69
2024/01/25 02:55:04;;;;;;;0.60;0.60;;;;;;;11.88;100.00;101459.06;5009913;28;20395;-68
2024/01/25 02:57:31;;;;;;;0.60;0.60;;;;;;;11.92;100.00;101458.13;5010153;28;20034;-69
2024/01/25 02:59:56;;;;;;;0.60;0.60;;;;;;;11.90;100.00;101459.94;5009655;28;20091;-69
2024/01/25 03:02:22;;;;;;;0.63;0.63;;;;;;;11.90;100.00;101459.94;5010085;28;20489;-69
2024/01/25 03:04:48;;;;;;;0.60;0.60;;;;;;;11.65;100.00;101432.75;5009312;28;20029;-69
2024/01/25 03:07:14;;;;;;;0.60;0.60;;;;;;;11.83;100.00;101464.47;5009277;28;20048;-69
2024/01/25 03:09:39;;;;;;;0.57;0.57;;;;;;;11.79;100.00;101451.22;4992182;28;20476;-68
2024/01/25 03:12:05;;;;;;;0.70;0.70;;;;;;;11.81;100.00;101449.44;5008803;28;20021;-68
2024/01/25 03:14:30;;;;;;;0.60;0.60;;;;;;;11.75;100.00;101446.84;4990825;28;20072;-68
2024/01/25 03:16:56;;;;;;;0.60;0.60;;;;;;;11.71;100.00;101453.13;5008645;28;20033;-69
2024/01/25 03:19:24;;;;;;;0.70;0.70;;;;;;;11.70;100.00;101448.69;5007368;28;20037;-69
2024/01/25 03:21:50;;;;;;;0.60;0.60;;;;;;;11.68;100.00;101454.03;5008926;28;20037;-69
2024/01/25 03:24:15;;;;;;;0.60;0.60;;;;;;;11.68;100.00;101453.16;5006997;28;20018;-68
2024/01/25 03:26:41;;;;;;;0.60;0.60;;;;;;;11.65;100.00;101466.53;5008283;28;20037;-69
2024/01/25 03:29:06;;;;;;;0.70;0.70;;;;;;;11.64;100.00;101462.09;5008887;28;20032;-69
2024/01/25 03:31:32;;;;;;;0.70;0.70;;;;;;;11.63;100.00;101455.00;5009288;28;20753;-69
2024/01/25 03:33:57;;;;;;;0.60;0.60;;;;;;;11.62;100.00;101462.09;5007129;28;20030;-68
2024/01/25 03:36:23;;;;;;;0.60;0.60;;;;;;;11.67;100.00;101467.38;5007665;28;20048;-66
2024/01/25 03:38:48;;;;;;;0.60;0.60;;;;;;;11.67;100.00;101467.38;5007452;28;20048;-68
2024/01/25 03:41:14;;;;;;;0.60;0.60;;;;;;;11.64;100.00;101468.34;5007094;28;20474;-68
2024/01/25 03:43:39;;;;;;;0.70;0.70;;;;;;;11.65;100.00;101471.84;5007769;28;20026;-68
2024/01/25 03:46:04;;;;;;;0.60;0.60;;;;;;;11.69;100.00;101470.91;4989885;28;20030;-68
2024/01/25 03:48:30;;;;;;;0.70;0.70;;;;;;;11.71;100.00;101474.44;5007101;28;20030;-67
2024/01/25 03:50:56;;;;;;;0.60;0.60;;;;;;;11.75;100.00;101474.38;5009069;28;20036;-69
2024/01/25 03:53:24;;;;;;;0.70;0.70;;;;;;;11.73;100.00;101467.28;5008188;28;20396;-68
2024/01/25 03:55:49;;;;;;;0.70;0.70;;;;;;;11.51;100.00;101441.81;5007198;28;20036;-68
2024/01/25 03:58:18;;;;;;;0.63;0.63;;;;;;;11.66;100.00;101481.63;5008331;28;20026;-69
2024/01/25 04:00:43;;;;;;;0.70;0.70;;;;;;;11.64;100.00;101489.66;4991690;28;20022;-69
2024/01/25 04:03:10;;;;;;;0.63;0.63;;;;;;;11.63;100.00;101482.53;4990608;28;20040;-68
2024/01/25 04:05:36;;;;;;;0.60;0.60;;;;;;;11.62;100.00;101486.09;5008684;28;20026;-69
2024/01/25 04:08:02;;;;;;;0.60;0.60;;;;;;;11.62;100.00;101490.53;5008720;28;20497;-68
2024/01/25 04:10:27;;;;;;;0.60;0.60;;;;;;;11.41;100.00;101474.81;5007532;28;20029;-69
2024/01/25 04:12:53;;;;;;;0.60;0.60;;;;;;;11.55;100.00;101505.72;5007491;28;20034;-67
2024/01/25 04:15:18;;;;;;;0.60;0.60;;;;;;;11.39;100.00;101476.63;5008012;28;20038;-69
2024/01/25 04:17:44;;;;;;;0.60;0.60;;;;;;;11.60;100.00;101505.63;4991174;28;20030;-69
2024/01/25 04:20:09;;;;;;;0.60;0.60;;;;;;;11.58;100.00;101512.81;5008765;28;20033;-68
2024/01/25 04:22:36;;;;;;;0.60;0.60;;;;;;;11.58;100.00;101503.00;5007711;28;20022;-69
2024/01/25 04:25:01;;;;;;;0.70;0.70;;;;;;;11.48;100.00;101480.03;5008471;28;20022;-69
2024/01/25 04:27:26;;;;;;;0.70;0.70;;;;;;;11.70;100.00;101510.00;4990191;28;20475;-69
2024/01/25 04:29:52;;;;;;;0.60;0.60;;;;;;;11.68;100.00;101511.78;5005993;28;20080;-68
2024/01/25 04:32:17;;;;;;;0.70;0.70;;;;;;;11.66;100.00;101513.63;5007250;28;20171;-69
2024/01/25 04:34:44;;;;;;;0.60;0.60;;;;;;;11.64;100.00;101499.41;5006183;28;20495;-69
2024/01/25 04:37:09;;;;;;;0.60;0.60;;;;;;;11.60;100.00;101514.53;5006490;28;20037;-69
2024/01/25 04:39:34;;;;;;;0.60;0.60;;;;;;;11.61;100.00;101520.75;5007155;28;20033;-68
2024/01/25 04:42:00;;;;;;;0.70;0.70;;;;;;;11.64;100.00;101515.41;5005207;28;20030;-69
2024/01/25 04:44:25;;;;;;;0.70;0.70;;;;;;;11.58;100.00;101518.13;4987868;28;20038;-68
2024/01/25 04:46:52;;;;;;;0.60;0.60;;;;;;;11.54;100.00;101516.41;4993863;28;20072;-68
2024/01/25 04:49:17;;;;;;;0.70;0.70;;;;;;;11.60;100.00;101524.28;5007991;28;20030;-69
2024/01/25 04:51:43;;;;;;;0.70;0.70;;;;;;;11.58;100.00;101523.47;5008828;28;20156;-69
2024/01/25 04:54:12;;;;;;;0.60;0.60;;;;;;;11.52;100.00;101528.84;4989951;28;20026;-69
2024/01/25 04:56:38;;;;;;;0.60;0.60;;;;;;;11.54;100.00;101527.94;5008394;28;20033;-69
2024/01/25 04:59:03;;;;;;;0.60;0.60;;;;;;;11.55;100.00;101532.34;4998023;28;20481;-69
2024/01/25 05:01:29;;;;;;;0.70;0.70;;;;;;;11.53;100.00;101523.50;4989226;28;20618;-68
2024/01/25 05:03:54;;;;;;;0.60;0.60;;;;;;;11.53;100.00;101527.97;5008250;28;20082;-69
2024/01/25 05:06:19;;;;;;;0.60;0.60;;;;;;;11.52;100.00;101534.19;5007367;28;20050;-70
2024/01/25 05:08:45;;;;;;;0.70;0.70;;;;;;;11.44;100.00;101534.28;4986887;28;20026;-69
2024/01/25 05:11:10;;;;;;;0.70;0.70;;;;;;;11.45;100.00;101535.19;5008182;28;20034;-69
2024/01/25 05:13:36;;;;;;;0.60;0.60;;;;;;;11.47;100.00;101544.00;5008548;28;20068;-69
2024/01/25 05:16:01;;;;;;;0.60;0.60;;;;;;;11.28;100.00;101511.41;5007998;28;20431;-68
2024/01/25 05:18:26;;;;;;;0.60;0.60;;;;;;;11.47;100.00;101554.66;5006698;28;20488;-70
2024/01/25 05:20:52;;;;;;;0.60;0.60;;;;;;;11.50;100.00;101546.63;5007656;28;20033;-69
2024/01/25 05:23:17;;;;;;;0.60;0.60;;;;;;;11.44;100.00;101550.28;4990371;28;20037;-69
2024/01/25 05:25:43;;;;;;;0.60;0.60;;;;;;;11.44;100.00;101549.38;5006518;28;20439;-69
2024/01/25 05:28:08;;;;;;;0.65;0.65;;;;;;;11.43;100.00;101544.97;5006223;28;20022;-69
2024/01/25 05:30:34;;;;;;;0.70;0.70;;;;;;;11.42;100.00;101545.84;5006098;28;20022;-69
2024/01/25 05:33:00;;;;;;;0.70;0.70;;;;;;;11.45;100.00;101535.19;5005987;28;20041;-70
2024/01/25 05:35:26;;;;;;;0.60;0.60;;;;;;;11.39;100.00;101543.22;5005518;28;20488;-69
2024/01/25 05:37:51;;;;;;;0.70;0.70;;;;;;;11.39;100.00;101530.78;5006179;28;20044;-69
2024/01/25 05:40:17;;;;;;;0.70;0.70;;;;;;;11.26;100.00;101517.63;5006835;28;20030;-70
2024/01/25 05:42:42;;;;;;;0.70;0.70;;;;;;;11.40;100.00;101542.34;5010602;28;20030;-69
2024/01/25 05:45:08;;;;;;;0.70;0.70;;;;;;;11.39;100.00;101548.53;5009596;28;20132;-69
2024/01/25 05:47:34;;;;;;;0.60;0.60;;;;;;;11.39;100.00;101537.88;5011151;28;20060;-69
2024/01/25 05:50:00;;;;;;;0.70;0.70;;;;;;;11.27;100.00;101522.03;5009610;28;20476;-69
2024/01/25 05:52:25;;;;;;;0.70;0.70;;;;;;;11.30;100.00;101540.69;5009540;28;20037;-68
2024/01/25 05:54:50;;;;;;;0.70;0.70;;;;;;;11.28;100.00;101547.78;4990461;28;20041;-68
2024/01/25 05:57:20;;;;;;;0.70;0.70;;;;;;;10.99;100.00;101492.19;4983286;28;20099;-69
2024/01/25 05:59:45;;;;;;;0.70;0.70;;;;;;;11.12;100.00;101516.91;5007710;28;20404;-70
2024/01/25 06:02:11;;;;;;;0.60;0.60;;;;;;;11.28;100.00;101547.78;5007487;28;20026;-69
2024/01/25 06:04:37;;;;;;;0.60;0.60;;;;;;;11.19;100.00;101554.09;5011570;28;20476;-70
2024/01/25 06:07:03;;;;;;;0.70;0.70;;;;;;;11.14;100.00;101555.03;5009547;28;20676;-70
2024/01/25 06:09:28;;;;;;;0.60;0.60;;;;;;;11.14;100.00;101561.25;4989121;28;20034;-70
2024/01/25 06:11:54;;;;;;;0.60;0.60;;;;;;;11.09;100.00;101572.84;4992518;28;20033;-73
2024/01/25 06:14:19;;;;;;;0.60;0.60;;;;;;;11.03;100.00;101573.81;5010382;28;20030;-68
2024/01/25 06:16:45;;;;;;;0.70;0.70;;;;;;;11.02;100.00;101568.50;5008354;28;20388;-67
2024/01/25 06:19:10;;;;;;;0.70;0.70;;;;;;;10.77;100.00;101527.03;5009066;28;20271;-67
2024/01/25 06:21:37;;;;;;;0.70;0.70;;;;;;;10.97;100.00;101562.31;5021492;28;20034;-68
2024/01/25 06:24:06;;;;;;;0.70;0.70;;;;;;;10.94;100.00;101573.00;5013360;28;20459;-67
2024/01/25 06:26:32;;;;;;;0.60;0.60;;;;;;;10.87;100.00;101557.97;5004531;28;20030;-68
2024/01/25 06:28:57;;;;;;;0.70;0.70;;;;;;;10.68;100.00;101538.63;5008364;28;20030;-68
2024/01/25 06:31:26;;;;;;;0.75;0.75;;;;;;;10.80;100.00;101566.91;5008934;28;20593;-67
2024/01/25 06:33:52;;;;;;;0.60;0.60;;;;;;;10.77;100.00;101566.94;5009170;28;20075;-68
2024/01/25 06:36:21;;;;;;;0.60;0.60;;;;;;;10.72;100.00;101560.78;5010759;28;20033;-68
2024/01/25 06:38:47;;;;;;;0.70;0.70;;;;;;;10.66;100.00;101566.16;5014863;28;20442;-68
2024/01/25 06:41:12;;;;;;;0.68;0.68;;;;;;;10.45;100.00;101541.50;5019014;28;20033;-67
2024/01/25 06:43:39;;;;;;;0.70;0.70;;;;;;;10.32;100.00;101533.59;5011545;28;20029;-64
2024/01/25 06:46:06;;;;;;;0.70;0.70;;;;;;;10.43;100.00;101559.22;5001270;28;20105;-65
2024/01/25 06:48:32;;;;;;;0.70;0.70;;;;;;;10.40;100.00;101561.91;5004176;28;20048;-64
2024/01/25 06:50:57;;;;;;;0.70;0.70;;;;;;;10.42;100.00;101565.47;5011667;28;20120;-64
2024/01/25 06:53:22;;;;;;;0.70;0.70;;;;;;;10.47;100.00;101571.63;5004751;28;20038;-65
2024/01/25 06:55:48;;;;;;;0.70;0.70;;;;;;;10.52;100.00;101569.81;5023085;28;20487;-64
2024/01/25 06:58:13;;;;;;;0.80;0.80;;;;;;;10.56;100.00;101571.53;5028890;28;20087;-64
2024/01/25 07:00:41;;;;;;;0.70;0.70;;;;;;;10.57;100.00;101569.78;5013230;28;20073;-64
2024/01/25 07:03:07;;;;;;;0.70;0.70;;;;;;;10.59;100.00;101568.84;5022446;28;20585;-64
2024/01/25 07:05:33;;;;;;;0.70;0.70;;;;;;;10.40;100.00;101548.63;5007808;28;20117;-65
2024/01/25 07:07:59;;;;;;;0.70;0.70;;;;;;;10.55;100.00;101575.09;5016380;28;20033;-64
2024/01/25 07:10:25;;;;;;;0.60;0.60;;;;;;;10.55;100.00;101584.88;5028344;28;20502;-65
2024/01/25 07:12:51;;;;;;;0.70;0.70;;;;;;;10.51;100.00;101578.66;5013445;28;20117;-64
2024/01/25 07:15:17;;;;;;;0.70;0.70;;;;;;;10.52;100.00;101580.47;5006909;28;20416;-64
2024/01/25 07:17:42;;;;;;;0.70;0.70;;;;;;;10.53;100.00;101579.56;5007842;28;20068;-65
2024/01/25 07:20:08;;;;;;;0.68;0.68;;;;;;;10.51;100.00;101568.03;4992186;28;20071;-65
2024/01/25 07:22:34;;;;;;;0.70;0.70;;;;;;;10.30;100.00;101536.28;5008667;28;20049;-64
2024/01/25 07:24:59;;;;;;;0.60;0.60;;;;;;;10.52;100.00;101575.13;5008614;28;20129;-64
2024/01/25 07:27:26;;;;;;;0.70;0.70;;;;;;;10.55;100.00;101577.78;5009541;28;20029;-64
2024/01/25 07:29:52;;;;;;;0.70;0.70;;;;;;;10.56;100.00;101579.53;5007507;28;20037;-65
2024/01/25 07:32:18;;;;;;;0.60;0.60;;;;;;;10.55;100.00;101582.19;4992053;28;20028;-64
2024/01/25 07:34:43;;;;;;;0.77;0.77;;;;;;;10.63;100.00;101580.34;5009619;28;20117;-64
2024/01/25 07:37:11;;;;;;;0.70;0.70;;;;;;;10.47;100.00;101541.47;5008355;28;20120;-65
2024/01/25 07:39:36;;;;;;;0.70;0.70;;;;;;;10.69;100.00;101577.66;5009121;28;20494;-64
2024/01/25 07:42:02;;;;;;;0.70;0.70;;;;;;;10.69;100.00;101582.09;5008973;28;20026;-65
2024/01/25 07:44:27;;;;;;;0.70;0.70;;;;;;;10.71;100.00;101575.84;5009232;28;20025;-65
2024/01/25 07:46:53;;;;;;;0.80;0.80;;;;;;;10.72;100.00;101577.63;5008647;28;20522;-65
2024/01/25 07:49:18;;;;;;;0.70;0.70;;;;;;;10.75;100.00;101582.03;5008940;28;20038;-65
2024/01/25 07:51:43;;;;;;;0.70;0.70;;;;;;;10.86;100.00;101574.84;5009505;28;20036;-65
2024/01/25 07:54:09;;;;;;;0.60;0.60;;;;;;;10.94;100.00;101583.66;5007142;28;20115;-64
2024/01/25 07:56:35;;;;;;;0.80;0.80;;;;;;;10.98;100.00;101572.97;5008063;28;20026;-65
2024/01/25 07:59:00;;;;;;;0.70;0.70;;;;;;;11.07;100.00;101579.97;5006756;28;20663;-65
2024/01/25 08:01:26;;;;;;;0.70;0.70;;;;;;;11.21;100.00;101583.38;5003579;28;20090;-65
2024/01/25 08:03:51;;;;;;;0.70;0.70;;;;;;;11.40;100.00;101574.31;4988295;28;20036;-64
2024/01/25 08:06:16;;;;;;;0.68;0.68;;;;;;;11.63;100.00;101561.59;4996059;28;20054;-65
2024/01/25 08:08:42;;;;;;;0.60;0.60;;;;;;;12.02;100.00;101570.88;5007315;28;20065;-64
2024/01/25 08:11:08;;;;;;;0.60;0.60;;;;;;;12.57;100.00;101574.50;4996744;28;20117;-65
2024/01/25 08:13:33;;;;;;;0.70;0.70;;;;;;;13.26;100.00;101569.75;5003112;28;20036;-65
2024/01/25 08:15:59;;;;;;;0.50;0.50;;;;;;;14.02;100.00;101569.97;4990390;28;20045;-65
2024/01/25 08:18:27;;;;;;;0.50;0.50;;;;;;;14.69;95.72;101566.63;5008667;28;20442;-65
2024/01/25 08:20:52;;;;;;;0.57;0.57;;;;;;;15.19;89.44;101574.25;5007817;28;20033;-65
2024/01/25 08:23:18;;;;;;;0.50;0.50;;;;;;;15.24;86.27;101565.16;4974485;28;20033;-65
2024/01/25 08:25:44;;;;;;;0.47;0.47;;;;;;;15.63;83.40;101561.41;5008883;28;20033;-65
2024/01/25 08:28:09;;;;;;;0.50;0.50;;;;;;;16.16;80.56;101537.47;5007809;28;20026;-65
2024/01/25 08:30:35;;;;;;;0.50;0.50;;;;;;;16.86;76.51;101570.09;4989298;28;20021;-65
2024/01/25 08:33:00;;;;;;;0.50;0.50;;;;;;;17.21;72.64;101557.22;5008491;28;20025;-65
2024/01/25 08:35:26;;;;;;;0.40;0.40;;;;;;;17.44;70.88;101547.41;5007783;28;20026;-65
2024/01/25 08:37:51;;;;;;;0.40;0.40;;;;;;;17.92;68.30;101550.13;5008257;28;20038;-65
2024/01/25 08:40:17;;;;;;;0.40;0.40;;;;;;;18.20;66.69;101535.50;5008196;28;20028;-65
2024/01/25 08:42:42;;;;;;;0.40;0.40;;;;;;;18.90;62.69;101549.69;5008298;28;20148;-65
2024/01/25 08:45:08;;;;;;;0.38;0.38;;;;;;;19.14;60.81;101553.19;5007197;28;20017;-65
2024/01/25 08:47:37;;;;;;;0.30;0.30;;;;;;;19.46;59.28;101547.25;5007425;28;20061;-65
2024/01/25 08:50:03;;;;;;;0.40;0.40;;;;;;;19.38;59.36;101542.22;5008289;28;20038;-65
2024/01/25 08:52:29;;;;;;;0.38;0.38;;;;;;;19.53;58.01;101519.06;5005643;28;20057;-65
2024/01/25 08:54:54;;;;;;;0.30;0.30;;;;;;;20.23;57.23;101549.94;4989168;28;20049;-65
2024/01/25 08:57:20;;;;;;;0.30;0.30;;;;;;;20.74;54.22;101546.53;5006725;28;20034;-65
2024/01/25 08:59:46;;;;;;;0.30;0.30;;;;;;;20.68;52.76;101553.13;5006546;28;20026;-65
2024/01/25 09:02:11;;;;;;;0.30;0.30;;;;;;;19.56;54.82;101562.09;5006451;28;20026;-65
2024/01/25 09:04:37;;;;;;;0.30;0.30;;;;;;;18.54;59.68;101577.28;5006943;28;20109;-68
2024/01/25 09:07:02;;;;;;;0.30;0.30;;;;;;;18.52;63.11;101568.41;4988746;28;20072;-68
2024/01/25 09:09:28;;;;;;;0.30;0.30;;;;;;;18.85;62.63;101573.28;5007730;28;20492;-68
2024/01/25 09:11:53;;;;;;;0.30;0.30;;;;;;;19.83;57.44;101577.06;5008148;28;20033;-68
2024/01/25 09:14:19;;;;;;;0.30;0.30;;;;;;;18.67;57.39;101576.75;5007510;28;20025;-69
2024/01/25 09:16:45;;;;;;;0.30;0.30;;;;;;;17.13;63.67;101581.72;5009177;28;20099;-68
2024/01/25 09:19:10;;;;;;;0.40;0.40;;;;;;;16.73;71.95;101578.59;5010410;28;20029;-69
2024/01/25 09:21:38;;;;;;;0.30;0.30;;;;;;;17.98;68.79;101576.78;5011620;28;20048;-68
2024/01/25 09:24:04;;;;;;;0.40;0.40;;;;;;;17.63;64.09;101580.81;5011652;28;20041;-68
2024/01/25 09:26:29;;;;;;;0.40;0.40;;;;;;;16.87;67.46;101587.06;5011933;28;20030;-68
2024/01/25 09:28:55;;;;;;;0.40;0.40;;;;;;;15.80;72.98;101591.31;5010366;28;20579;-70
2024/01/25 09:31:20;;;;;;;0.40;0.40;;;;;;;14.60;76.45;101543.63;5010801;28;20034;-69
2024/01/25 09:33:46;;;;;;;0.40;0.40;;;;;;;14.36;82.18;101600.44;5010001;28;20743;-68
2024/01/25 09:36:11;;;;;;;0.50;0.50;;;;;;;13.77;85.20;101579.44;5009762;28;20045;-68
2024/01/25 09:38:37;;;;;;;0.50;0.50;;;;;;;13.46;89.06;101605.88;5009251;28;20030;-69
2024/01/25 09:41:02;;;;;;;0.50;0.50;;;;;;;13.16;92.37;101598.44;5010200;28;20034;-68
2024/01/25 09:43:28;;;;;;;0.50;0.50;;;;;;;12.97;94.13;101603.19;4974377;28;20033;-68
2024/01/25 09:45:56;;;;;;;0.50;0.50;;;;;;;12.65;95.11;101572.59;5009430;28;20041;-68
2024/01/25 09:48:23;;;;;;;0.60;0.60;;;;;;;12.76;97.32;101611.56;5009583;28;20064;-66
2024/01/25 09:50:48;;;;;;;0.57;0.57;;;;;;;12.79;97.98;101615.97;5007406;28;20107;-68
2024/01/25 09:53:20;;;;;;;0.60;0.60;;;;;;;12.96;98.27;101614.75;5009305;28;20034;-67
2024/01/25 09:56:14;;;;;;;0.60;0.60;;;;;;;13.04;97.93;101612.00;5008790;28;20053;-67
2024/01/25 09:58:45;;;;;;;0.60;0.60;;;;;;;12.98;98.18;101620.09;5005633;28;20117;-68
2024/01/25 10:01:15;;;;;;;0.60;0.60;;;;;;;12.82;98.42;101562.50;5008824;28;20033;-68
2024/01/25 10:03:45;;;;;;;0.60;0.60;;;;;;;12.98;98.28;101620.97;5009925;28;20034;-68
2024/01/25 10:06:12;;;;;;;0.60;0.60;;;;;;;13.13;99.01;101623.41;5009051;28;20577;-68
2024/01/25 10:08:38;;;;;;;0.60;0.60;;;;;;;12.98;98.60;101620.09;5010080;28;20488;-68
2024/01/25 10:11:04;;;;;;;0.60;0.60;;;;;;;12.90;99.45;101620.22;5007925;28;20052;-68
2024/01/25 10:13:30;;;;;;;0.60;0.60;;;;;;;12.74;100.00;101616.03;5009031;28;20033;-68
2024/01/25 10:15:56;;;;;;;0.50;0.50;;;;;;;12.71;100.00;101605.41;5008986;28;20026;-68
2024/01/25 10:18:25;;;;;;;0.50;0.50;;;;;;;12.70;100.00;101616.97;5007355;28;20076;-68
2024/01/25 10:20:53;;;;;;;0.60;0.60;;;;;;;12.85;100.00;101606.06;5008894;28;20488;-68
2024/01/25 10:23:19;;;;;;;0.60;0.60;;;;;;;12.95;100.00;101613.00;5010249;28;20078;-67
2024/01/25 10:25:44;;;;;;;0.50;0.50;;;;;;;13.00;100.00;101611.16;5010206;28;20034;-68
2024/01/25 10:28:12;;;;;;;0.55;0.55;;;;;;;13.02;100.00;101598.69;5009975;28;20022;-68
2024/01/25 10:30:38;;;;;;;0.50;0.50;;;;;;;13.09;99.97;101595.00;4991739;28;20030;-68
2024/01/25 10:33:04;;;;;;;0.50;0.50;;;;;;;13.35;98.61;101593.63;5010576;28;20105;-68
2024/01/25 10:35:31;;;;;;;0.50;0.50;;;;;;;13.88;97.98;101585.44;4991585;28;20148;-69
2024/01/25 10:37:57;;;;;;;0.60;0.60;;;;;;;14.34;95.17;101581.75;5010214;28;20440;-68
2024/01/25 10:40:23;;;;;;;0.50;0.50;;;;;;;14.71;91.61;101591.59;5008683;28;20068;-68
2024/01/25 10:42:48;;;;;;;0.50;0.50;;;;;;;14.52;88.52;101540.25;5009442;28;20048;-68
2024/01/25 10:45:14;;;;;;;0.50;0.50;;;;;;;15.06;88.68;101591.56;5008304;28;20037;-68
2024/01/25 10:47:44;;;;;;;0.50;0.50;;;;;;;15.67;84.16;101570.25;5007667;28;20065;-69
2024/01/25 10:50:13;;;;;;;0.50;0.50;;;;;;;16.41;83.65;101576.03;4990067;28;20050;-68
2024/01/25 10:52:40;;;;;;;0.40;0.40;;;;;;;17.41;78.55;101568.16;4986528;28;20201;-68
2024/01/25 10:55:07;;;;;;;0.40;0.40;;;;;;;18.62;69.86;101565.28;4988662;28;20102;-68
2024/01/25 10:57:42;;;;;;;0.40;0.40;;;;;;;19.54;65.37;101569.38;4990047;28;20038;-69
2024/01/25 11:00:10;;;;;;;0.40;0.40;;;;;;;20.19;61.52;101575.38;5010413;28;20037;-69
2024/01/25 11:02:36;;;;;;;0.30;0.30;;;;;;;20.52;58.64;101584.56;4982738;28;20099;-68
2024/01/25 11:05:03;;;;;;;0.30;0.30;;;;;;;20.54;55.62;101584.50;4990484;28;20092;-69
2024/01/25 11:07:29;;;;;;;0.30;0.30;;;;;;;20.24;58.30;101557.13;4991348;28;20128;-69
2024/01/25 11:09:55;;;;;;;0.30;0.30;;;;;;;20.63;55.25;101582.22;5010024;28;20109;-68
2024/01/25 11:12:21;;;;;;;0.30;0.30;;;;;;;21.04;55.46;101571.19;5009604;28;20029;-68
2024/01/25 11:14:54;;;;;;;0.20;0.20;;;;;;;21.37;53.57;101564.00;5009336;28;20033;-69
2024/01/25 11:17:23;;;;;;;0.20;0.20;;;;;;;21.37;53.51;101559.50;5009189;28;20132;-68